Time;durP1;ratioP1;P1;durP2;ratioP2;P2;SDS_P1;SDS_P2;PMS_P1;PMS_P2;Temp;Humidity;BMP_temperature;BMP_pressure;BME280_temperature;BME280_humidity;BME280_pressure;Samples;Min_cycle;Max_cycle;Signal;HPM_P1;HPM_P2
2022/11/16 00:01:12;;;;;;;74.50;28.30;;;;;;;1.27;100.00;100581.98;105949;1262;61329;-71
2022/11/16 00:03:42;;;;;;;76.10;28.80;;;;;;;1.35;100.00;100580.65;105863;1260;61268;-72
2022/11/16 00:06:13;;;;;;;77.60;28.90;;;;;;;1.43;100.00;100572.11;105934;1268;73726;-73
2022/11/16 00:09:21;;;;;;;65.20;26.00;;;;;;;1.43;100.00;100557.86;106022;1263;70542;-73
2022/11/16 00:11:38;;;;;;;62.60;25.90;;;;;;;1.49;100.00;100560.56;105914;1260;60123;-74
2022/11/16 00:14:07;;;;;;;66.40;26.60;;;;;;;1.49;100.00;100561.95;106022;1265;72265;-74
2022/11/16 00:16:37;;;;;;;61.40;25.00;;;;;;;1.51;100.00;100565.31;105957;1261;58973;-74
2022/11/16 00:19:07;;;;;;;61.50;25.60;;;;;;;1.50;100.00;100565.18;105907;1264;60263;-74
2022/11/16 00:21:36;;;;;;;56.70;24.80;;;;;;;1.47;100.00;100563.21;106085;1260;73870;-77
2022/11/16 00:24:05;;;;;;;68.00;26.70;;;;;;;1.45;100.00;100555.91;105848;1258;72641;-77
2022/11/16 00:26:34;;;;;;;57.10;23.90;;;;;;;1.45;100.00;100557.13;106646;1257;69327;-74
2022/11/16 00:29:02;;;;;;;57.10;23.70;;;;;;;1.45;100.00;100553.86;106510;1254;74555;-77
2022/11/16 00:31:31;;;;;;;61.50;24.50;;;;;;;1.44;100.00;100551.83;106570;1264;58736;-75
2022/11/16 00:34:00;;;;;;;59.80;25.20;;;;;;;1.43;100.00;100548.27;106182;1266;58295;-76
2022/11/16 00:36:29;;;;;;;57.70;24.30;;;;;;;1.44;100.00;100542.77;106039;1254;70137;-77
2022/11/16 00:38:57;;;;;;;62.30;25.20;;;;;;;1.42;100.00;100539.55;106118;1250;70262;-75
2022/11/16 00:41:26;;;;;;;59.50;26.90;;;;;;;1.41;100.00;100540.11;105991;1262;60494;-77
2022/11/16 00:43:55;;;;;;;52.80;25.50;;;;;;;1.41;100.00;100540.27;105903;1264;71855;-76
2022/11/16 00:46:23;;;;;;;62.80;26.50;;;;;;;1.41;99.98;100539.08;106073;1257;60129;-76
2022/11/16 00:48:53;;;;;;;65.10;26.70;;;;;;;1.42;100.00;100529.09;106105;1254;60232;-74
2022/11/16 00:51:21;;;;;;;60.00;25.30;;;;;;;1.46;100.00;100525.31;105993;1260;73588;-76
2022/11/16 00:53:50;;;;;;;56.90;24.90;;;;;;;1.52;100.00;100520.13;105811;1262;69428;-75
2022/11/16 00:56:19;;;;;;;59.30;23.70;;;;;;;1.57;100.00;100518.39;105949;1263;67749;-74
2022/11/16 00:58:49;;;;;;;60.40;23.70;;;;;;;1.63;99.98;100513.70;105987;1266;74766;-75
2022/11/16 01:01:18;;;;;;;56.20;24.20;;;;;;;1.68;100.00;100503.03;105987;1266;62021;-74
2022/11/16 01:03:46;;;;;;;65.20;26.90;;;;;;;1.73;99.94;100499.74;105965;1256;60639;-74
2022/11/16 01:06:16;;;;;;;59.30;24.40;;;;;;;1.79;100.00;100495.71;105821;1257;63197;-75
2022/11/16 01:08:45;;;;;;;58.30;24.90;;;;;;;1.82;100.00;100488.59;105934;1260;71075;-74
2022/11/16 01:14:08;;;;;;;61.60;24.00;;;;;;;2.00;100.00;100495.73;105919;1257;64682;-72
2022/11/16 01:16:37;;;;;;;64.00;24.80;;;;;;;2.12;99.80;100486.66;105974;1254;61796;-72
2022/11/16 01:19:06;;;;;;;67.20;26.80;;;;;;;2.14;100.00;100476.96;105881;1260;61207;-72
2022/11/16 01:21:35;;;;;;;66.90;26.10;;;;;;;2.19;100.00;100471.29;105916;1260;62379;-74
2022/11/16 01:24:05;;;;;;;68.40;26.20;;;;;;;2.23;100.00;100464.95;106001;1260;60837;-73
2022/11/16 01:26:33;;;;;;;63.90;28.50;;;;;;;2.27;99.94;100460.77;105900;1260;70471;-72
2022/11/16 01:29:03;;;;;;;60.20;25.90;;;;;;;2.33;99.75;100458.33;105963;1268;64560;-72
2022/11/16 01:31:35;;;;;;;57.10;25.50;;;;;;;2.36;99.42;100456.28;105904;1260;59437;-72
2022/11/16 01:34:05;;;;;;;59.90;25.00;;;;;;;2.37;99.06;100447.48;105996;1254;59918;-72
2022/11/16 01:36:35;;;;;;;61.60;26.10;;;;;;;2.41;99.23;100434.77;105973;1263;71306;-73
2022/11/16 01:39:05;;;;;;;58.30;25.00;;;;;;;2.44;99.42;100426.56;106006;1254;71673;-73
2022/11/16 01:42:27;;;;;;;62.00;23.80;;;;;;;2.50;99.50;100427.02;105832;1259;70202;-77
2022/11/16 01:45:46;;;;;;;67.70;26.50;;;;;;;2.54;99.29;100429.05;106016;1268;63002;-74
2022/11/16 01:48:26;;;;;;;66.40;27.50;;;;;;;2.62;99.56;100422.00;105813;1260;62193;-75
2022/11/16 01:50:56;;;;;;;71.40;26.30;;;;;;;2.67;100.00;100417.30;106001;1263;60982;-74
2022/11/16 01:53:25;;;;;;;73.40;31.10;;;;;;;2.71;99.83;100422.96;106093;1264;72663;-76
2022/11/16 01:55:56;;;;;;;75.10;36.10;;;;;;;2.75;99.95;100424.49;106156;1254;71163;-77
2022/11/16 01:58:50;;;;;;;77.00;33.80;;;;;;;2.81;99.96;100423.88;105988;1263;70734;-78
2022/11/16 02:01:25;;;;;;;81.00;34.90;;;;;;;2.85;99.89;100424.22;105949;1260;63183;-76
2022/11/16 02:03:55;;;;;;;68.60;30.40;;;;;;;2.90;99.75;100421.79;106125;1258;59055;-76
2022/11/16 02:06:39;;;;;;;76.20;34.90;;;;;;;2.95;99.38;100422.27;105989;1260;58659;-79
2022/11/16 02:12:42;;;;;;;96.50;46.30;;;;;;;3.04;99.69;100423.23;106014;1258;61257;-77
2022/11/16 02:15:46;;;;;;;80.00;37.40;;;;;;;3.11;99.26;100423.41;105848;1268;61639;-77
2022/11/16 02:18:31;;;;;;;84.40;37.50;;;;;;;3.15;99.34;100420.80;106062;1263;73191;-77
2022/11/16 02:21:27;;;;;;;87.30;37.80;;;;;;;3.18;99.78;100420.99;105992;1260;60873;-76
2022/11/16 02:24:42;;;;;;;80.00;38.30;;;;;;;3.24;99.92;100416.95;105969;1266;59707;-74
2022/11/16 02:27:43;;;;;;;74.50;30.20;;;;;;;3.29;99.60;100415.00;105670;1261;63448;-75
2022/11/16 02:30:13;;;;;;;71.40;29.60;;;;;;;3.34;98.94;100422.00;105963;1264;61585;-76
2022/11/16 02:32:55;;;;;;;72.10;30.00;;;;;;;3.38;99.06;100428.85;105952;1267;59776;-75
2022/11/16 02:35:51;;;;;;;57.50;22.30;;;;;;;3.37;98.80;100427.86;105854;1260;74855;-76
2022/11/16 02:38:32;;;;;;;54.20;23.50;;;;;;;3.31;96.81;100426.44;106030;1259;59118;-76
2022/11/16 02:41:09;;;;;;;54.70;23.80;;;;;;;3.12;96.90;100419.23;106016;1268;60326;-76
2022/11/16 02:43:47;;;;;;;57.90;26.40;;;;;;;3.02;97.56;100418.34;105998;1259;62035;-70
2022/11/16 02:46:24;;;;;;;63.50;26.60;;;;;;;3.01;98.21;100413.90;105995;1267;70737;-70
2022/11/16 02:49:00;;;;;;;56.90;24.50;;;;;;;3.05;97.90;100410.92;105882;1263;60685;-73
2022/11/16 02:51:30;;;;;;;59.50;26.60;;;;;;;3.02;98.08;100407.83;105791;1259;72847;-72
2022/11/16 02:54:21;;;;;;;55.00;26.10;;;;;;;3.04;98.40;100403.42;105739;1253;59099;-72
2022/11/16 02:57:04;;;;;;;63.40;27.90;;;;;;;3.11;98.52;100398.45;105921;1260;61158;-72
2022/11/16 02:59:57;;;;;;;62.80;26.90;;;;;;;3.12;98.30;100395.63;105941;1261;73967;-72
2022/11/16 03:02:46;;;;;;;54.40;26.50;;;;;;;3.14;98.35;100393.84;105899;1260;61937;-72
2022/11/16 03:05:34;;;;;;;55.60;25.60;;;;;;;3.19;98.62;100387.05;105945;1258;70673;-72
2022/11/16 03:08:37;;;;;;;67.00;28.20;;;;;;;3.25;98.89;100384.20;105929;1266;73754;-72
2022/11/16 03:14:06;;;;;;;67.70;26.90;;;;;;;3.38;99.04;100378.60;106049;1259;59038;-73
2022/11/16 03:16:45;;;;;;;66.50;27.40;;;;;;;3.42;99.50;100379.59;105963;1259;62095;-74
2022/11/16 03:19:23;;;;;;;70.00;28.10;;;;;;;3.48;99.75;100377.58;105993;1264;62930;-80
2022/11/16 03:22:10;;;;;;;75.70;28.20;;;;;;;3.54;99.67;100372.30;105988;1254;60145;-74
2022/11/16 03:24:40;;;;;;;70.10;27.80;;;;;;;3.62;99.74;100363.63;105945;1268;62467;-74
2022/11/16 03:27:12;;;;;;;73.30;29.40;;;;;;;3.70;99.59;100363.45;105828;1262;59123;-73
2022/11/16 03:30:20;;;;;;;70.20;27.20;;;;;;;3.76;99.99;100357.30;105926;1260;59087;-75
2022/11/16 03:33:28;;;;;;;61.40;27.50;;;;;;;3.80;99.39;100360.88;105847;1258;72966;-73
2022/11/16 03:36:15;;;;;;;62.70;26.40;;;;;;;3.86;99.66;100365.90;105908;1260;61443;-73
2022/11/16 03:38:46;;;;;;;46.40;18.60;;;;;;;3.93;98.81;100370.24;105943;1263;70403;-74
2022/11/16 03:41:17;;;;;;;56.00;22.70;;;;;;;3.95;96.01;100367.00;106000;1260;64394;-72
2022/11/16 03:43:48;;;;;;;48.20;21.00;;;;;;;3.82;95.03;100364.89;106001;1264;59062;-72
2022/11/16 03:46:19;;;;;;;41.80;20.50;;;;;;;3.67;94.20;100359.45;105787;1268;60253;-73
2022/11/16 03:48:47;;;;;;;47.70;21.60;;;;;;;3.43;94.27;100352.17;105880;1261;73135;-72
2022/11/16 03:51:24;;;;;;;50.60;23.50;;;;;;;3.32;94.55;100353.39;106060;1259;72070;-73
2022/11/16 03:53:54;;;;;;;45.20;19.80;;;;;;;3.22;95.05;100342.00;106095;1264;59600;-74
2022/11/16 03:56:22;;;;;;;50.20;21.20;;;;;;;3.15;95.29;100341.80;106014;1259;72988;-74
2022/11/16 03:58:51;;;;;;;49.10;20.80;;;;;;;3.10;95.67;100339.13;106042;1260;59569;-73
2022/11/16 04:01:20;;;;;;;44.50;19.90;;;;;;;3.01;95.93;100336.42;106126;1259;58193;-73
2022/11/16 04:03:49;;;;;;;46.80;20.10;;;;;;;2.93;96.43;100332.02;106141;1254;62789;-74
2022/11/16 04:25:56;;;;;;;54.30;26.70;;;;;;;2.95;100.00;100304.94;105944;1260;70938;-75
2022/11/16 04:28:29;;;;;;;55.00;24.70;;;;;;;3.03;99.99;100300.59;105969;1257;73610;-74
2022/11/16 04:39:45;;;;;;;62.50;27.20;;;;;;;3.30;100.00;100297.41;106034;1260;60677;-73
2022/11/16 04:42:18;;;;;;;68.40;29.90;;;;;;;3.38;99.75;100293.20;105692;1258;421752;-74
2022/11/16 04:47:50;;;;;;;119.80;49.10;;;;;;;3.52;99.86;100289.75;105978;1263;60807;-73
2022/11/16 04:50:21;;;;;;;67.00;26.40;;;;;;;3.60;99.81;100292.98;105982;1260;60305;-75
2022/11/16 04:52:50;;;;;;;63.70;26.40;;;;;;;3.65;99.55;100289.30;105998;1256;73720;-77
2022/11/16 04:55:19;;;;;;;75.50;30.20;;;;;;;3.70;99.48;100293.14;106008;1260;63656;-76
2022/11/16 04:57:48;;;;;;;69.00;28.20;;;;;;;3.77;99.46;100287.63;105981;1260;59696;-75
2022/11/16 05:00:18;;;;;;;65.60;28.30;;;;;;;3.84;99.13;100284.02;105898;1259;71214;-73
2022/11/16 05:02:47;;;;;;;70.70;28.50;;;;;;;3.88;99.11;100275.55;106127;1256;61314;-76
2022/11/16 05:05:16;;;;;;;73.00;30.40;;;;;;;3.88;99.13;100264.17;106134;1262;59217;-77
2022/11/16 05:07:46;;;;;;;79.90;30.10;;;;;;;3.91;99.43;100258.84;106260;1267;73454;-76
2022/11/16 05:10:24;;;;;;;73.70;30.80;;;;;;;3.94;99.43;100248.14;106256;1260;60488;-77
2022/11/16 05:12:53;;;;;;;79.30;29.10;;;;;;;3.98;99.41;100245.52;106328;1254;59707;-76
2022/11/16 05:15:22;;;;;;;79.60;32.00;;;;;;;4.02;99.34;100243.61;106315;1263;72749;-73
2022/11/16 05:17:53;;;;;;;74.50;28.50;;;;;;;4.08;99.23;100253.48;106277;1260;61877;-74
2022/11/16 05:26:05;;;;;;;78.60;30.30;;;;;;;4.06;99.06;100252.38;105922;1255;72590;-72
2022/11/16 05:28:34;;;;;;;73.60;28.30;;;;;;;4.13;99.20;100252.52;106083;1260;69332;-74
2022/11/16 05:31:03;;;;;;;75.20;29.10;;;;;;;4.14;98.76;100256.45;106142;1254;62726;-73
2022/11/16 05:33:32;;;;;;;71.50;29.70;;;;;;;4.12;98.93;100257.91;105955;1265;58119;-74
2022/11/16 05:36:01;;;;;;;83.10;31.40;;;;;;;4.11;98.95;100259.36;106051;1259;59046;-74
2022/11/16 05:38:29;;;;;;;69.10;29.10;;;;;;;4.13;99.14;100255.11;106069;1264;73480;-74
2022/11/16 05:40:59;;;;;;;71.30;29.00;;;;;;;4.15;99.15;100253.24;106242;1258;72321;-74
2022/11/16 05:43:28;;;;;;;77.10;30.10;;;;;;;4.17;99.00;100251.27;106067;1258;60729;-72
2022/11/16 05:46:31;;;;;;;73.80;28.10;;;;;;;4.22;99.10;100253.26;106148;1260;63237;-73
2022/11/16 05:49:00;;;;;;;70.90;30.50;;;;;;;4.30;99.04;100253.66;106306;1254;62175;-76
2022/11/16 05:51:30;;;;;;;86.60;31.10;;;;;;;4.33;98.67;100255.62;106093;1260;59385;-75
2022/11/16 05:54:00;;;;;;;77.60;30.00;;;;;;;4.33;98.41;100247.68;106242;1260;62906;-76
2022/11/16 05:56:29;;;;;;;73.70;32.00;;;;;;;4.33;98.43;100246.45;106101;1257;62041;-75
2022/11/16 05:58:59;;;;;;;71.60;30.00;;;;;;;4.37;98.17;100245.55;106193;1254;71484;-75
2022/11/16 06:01:28;;;;;;;74.10;32.20;;;;;;;4.38;97.72;100247.58;106249;1263;73112;-73
2022/11/16 06:04:01;;;;;;;80.20;35.00;;;;;;;4.36;97.62;100245.41;106646;1263;59370;-74
2022/11/16 06:06:30;;;;;;;85.10;39.60;;;;;;;4.31;97.36;100240.52;106244;1265;58554;-75
2022/11/16 06:08:59;;;;;;;85.90;38.70;;;;;;;4.33;97.66;100238.89;106170;1260;62071;-77
2022/11/16 06:11:28;;;;;;;87.10;41.50;;;;;;;4.36;97.42;100237.50;106268;1259;61399;-77
2022/11/16 06:14:04;;;;;;;80.40;39.20;;;;;;;4.36;97.10;100239.05;106197;1266;59289;-76
2022/11/16 06:16:33;;;;;;;80.80;34.20;;;;;;;4.40;96.98;100239.36;106090;1260;71846;-76
2022/11/16 06:19:03;;;;;;;88.00;35.90;;;;;;;4.42;97.10;100236.30;105893;1266;59109;-76
2022/11/16 06:21:36;;;;;;;91.90;38.80;;;;;;;4.45;97.08;100227.69;106241;1266;58975;-76
2022/11/16 06:24:09;;;;;;;83.80;36.20;;;;;;;4.47;96.97;100221.86;106044;1262;62125;-77
2022/11/16 06:26:38;;;;;;;78.00;32.70;;;;;;;4.45;97.19;100223.52;106180;1255;72073;-76
2022/11/16 06:29:06;;;;;;;69.80;31.00;;;;;;;4.49;97.01;100222.32;106279;1266;69884;-76
2022/11/16 06:31:36;;;;;;;75.90;31.50;;;;;;;4.47;96.91;100222.92;105974;1263;73405;-76
2022/11/16 06:34:04;;;;;;;73.40;31.00;;;;;;;4.43;97.51;100221.09;106339;1265;62745;-76
2022/11/16 06:36:34;;;;;;;78.80;32.60;;;;;;;4.50;97.51;100215.84;106234;1266;62154;-75
2022/11/16 06:39:03;;;;;;;78.60;33.20;;;;;;;4.55;97.08;100220.23;106096;1263;64035;-76
2022/11/16 06:41:35;;;;;;;82.40;32.80;;;;;;;4.53;96.79;100224.83;106228;1257;71557;-78
2022/11/16 06:44:09;;;;;;;74.20;32.00;;;;;;;4.60;96.83;100224.63;106216;1263;59042;-76
2022/11/16 06:46:41;;;;;;;72.40;31.00;;;;;;;4.57;96.30;100221.19;106009;1257;72897;-77
2022/11/16 06:49:10;;;;;;;67.50;29.80;;;;;;;4.56;96.67;100220.71;106188;1264;61119;-76
2022/11/16 06:51:39;;;;;;;76.40;32.20;;;;;;;4.61;96.70;100218.21;106262;1255;61072;-77
2022/11/16 06:54:08;;;;;;;81.60;31.40;;;;;;;4.65;96.50;100221.75;106388;1265;62485;-77
2022/11/16 06:56:37;;;;;;;77.70;28.70;;;;;;;4.65;97.00;100222.77;106137;1262;63836;-75
2022/11/16 06:59:08;;;;;;;78.60;29.10;;;;;;;4.68;96.62;100218.84;106248;1260;70445;-74
2022/11/16 07:01:37;;;;;;;73.00;31.60;;;;;;;4.69;96.68;100219.97;106279;1266;64839;-76
2022/11/16 07:04:14;;;;;;;77.30;32.00;;;;;;;4.80;96.68;100221.11;106181;1264;61956;-76
2022/11/16 07:06:48;;;;;;;73.20;30.00;;;;;;;4.84;95.60;100214.30;106283;1265;59033;-76
2022/11/16 07:09:17;;;;;;;70.40;28.80;;;;;;;4.88;95.71;100216.33;106136;1262;62929;-73
2022/11/16 07:11:47;;;;;;;83.50;33.10;;;;;;;4.93;95.54;100212.45;105995;1260;71846;-75
2022/11/16 07:14:16;;;;;;;78.90;31.50;;;;;;;4.94;95.67;100215.64;106178;1265;69809;-76
2022/11/16 07:16:45;;;;;;;79.10;32.20;;;;;;;4.97;95.14;100209.27;106163;1263;62829;-71
2022/11/16 07:19:15;;;;;;;76.00;31.40;;;;;;;4.95;95.52;100200.61;106118;1257;62039;-76
2022/11/16 07:21:44;;;;;;;80.60;34.00;;;;;;;4.99;95.11;100195.67;106249;1255;59152;-76
2022/11/16 07:24:15;;;;;;;83.80;31.70;;;;;;;4.97;95.06;100193.02;106035;1260;72922;-72
2022/11/16 07:26:44;;;;;;;80.70;34.20;;;;;;;4.97;95.79;100187.16;106134;1265;62003;-77
2022/11/16 07:29:16;;;;;;;82.50;35.90;;;;;;;5.03;95.40;100183.70;106457;1256;70290;-77
2022/11/16 07:32:04;;;;;;;73.70;29.90;;;;;;;5.12;95.09;100184.93;106434;1261;72558;-76
2022/11/16 07:34:52;;;;;;;75.00;31.90;;;;;;;5.15;94.88;100186.70;106463;1265;62214;-77
2022/11/16 07:37:21;;;;;;;75.40;30.40;;;;;;;5.19;94.99;100184.71;106192;1263;59240;-75
2022/11/16 07:39:51;;;;;;;84.10;33.20;;;;;;;5.26;94.89;100180.84;106197;1263;62907;-77
2022/11/16 07:42:20;;;;;;;80.00;31.40;;;;;;;5.25;94.34;100185.04;106419;1257;71633;-80
2022/11/16 07:45:42;;;;;;;77.90;28.10;;;;;;;5.29;93.86;100184.77;106277;1257;60269;-80
2022/11/16 07:48:11;;;;;;;82.00;31.80;;;;;;;5.30;93.95;100190.45;106053;1263;63224;-77
2022/11/16 07:51:07;;;;;;;75.20;29.90;;;;;;;5.48;93.94;100191.77;106002;1265;58487;-75
2022/11/16 07:53:40;;;;;;;77.20;33.40;;;;;;;5.50;93.54;100190.45;105786;1251;59446;-78
2022/11/16 07:56:10;;;;;;;78.00;30.30;;;;;;;5.47;93.35;100191.30;106200;1256;73890;-78
2022/11/16 07:58:40;;;;;;;976.60;119.10;;;;;;;5.92;95.03;100188.97;106071;1259;71992;-79
2022/11/16 08:01:17;;;;;;;856.50;106.40;;;;;;;6.22;93.38;100173.84;106254;1265;60345;-78
2022/11/16 08:03:47;;;;;;;1256.40;161.80;;;;;;;6.37;91.12;100163.05;105941;1257;73581;-78
2022/11/16 08:06:25;;;;;;;1999.90;327.70;;;;;;;6.35;91.10;100161.61;105925;1260;62610;-76
2022/11/16 08:08:55;;;;;;;210.10;46.10;;;;;;;6.68;90.25;100160.66;106002;1265;60347;-78
2022/11/16 08:11:26;;;;;;;264.10;50.90;;;;;;;6.73;92.26;100162.61;106539;1256;62912;-77
2022/11/16 08:13:56;;;;;;;250.50;45.50;;;;;;;6.61;89.71;100161.98;106366;1259;61553;-79
2022/11/16 08:16:25;;;;;;;80.00;31.40;;;;;;;6.31;88.50;100156.86;106191;1260;59253;-78
2022/11/16 08:19:01;;;;;;;108.70;33.40;;;;;;;6.27;90.21;100144.30;105957;1260;74228;-77
2022/11/16 08:21:29;;;;;;;1886.30;210.00;;;;;;;6.47;91.78;100133.83;106212;1260;63966;-76
2022/11/16 08:23:58;;;;;;;1999.90;257.80;;;;;;;6.51;89.68;100131.00;106294;1265;60504;-77
2022/11/16 08:26:27;;;;;;;635.70;77.70;;;;;;;6.48;89.97;100128.73;106349;1252;72594;-78
2022/11/16 08:29:05;;;;;;;124.50;34.90;;;;;;;6.50;89.50;100126.92;106021;1258;62020;-76
2022/11/16 08:31:36;;;;;;;1241.00;135.80;;;;;;;6.37;89.91;100126.71;106088;1265;69708;-78
2022/11/16 08:34:11;;;;;;;145.10;34.00;;;;;;;6.65;90.37;100128.84;106133;1263;73816;-76
2022/11/16 08:36:43;;;;;;;179.00;37.90;;;;;;;6.68;88.90;100130.77;106150;1257;62009;-76
2022/11/16 08:39:12;;;;;;;543.20;73.00;;;;;;;6.78;89.03;100129.05;106067;1260;59147;-77
2022/11/16 08:41:43;;;;;;;106.10;30.60;;;;;;;6.73;87.90;100125.74;106249;1256;62907;-76
2022/11/16 08:44:13;;;;;;;263.30;43.20;;;;;;;6.68;89.71;100127.29;106122;1254;71332;-77
2022/11/16 08:46:44;;;;;;;76.10;27.40;;;;;;;6.85;88.05;100130.31;106165;1260;60390;-76
2022/11/16 08:50:03;;;;;;;345.70;51.30;;;;;;;7.14;91.39;100127.17;106235;1257;74329;-76
2022/11/16 08:52:34;;;;;;;84.30;27.10;;;;;;;7.25;86.95;100120.88;106740;1253;61977;-80
2022/11/16 08:55:05;;;;;;;393.40;61.40;;;;;;;7.35;87.67;100116.20;106600;1254;59564;-76
2022/11/16 08:57:35;;;;;;;223.20;43.20;;;;;;;7.56;84.99;100117.25;106029;1255;72047;-78
2022/11/16 09:00:10;;;;;;;220.90;45.00;;;;;;;7.61;84.54;100108.76;106618;1263;72687;-80
2022/11/16 09:02:38;;;;;;;121.60;34.50;;;;;;;7.84;84.82;100104.38;106385;1260;70127;-79
2022/11/16 09:05:10;;;;;;;118.80;32.10;;;;;;;7.85;82.58;100107.55;106217;1253;73495;-81
2022/11/16 09:07:42;;;;;;;86.70;28.40;;;;;;;7.76;81.98;100095.16;106498;1254;58977;-77
2022/11/16 09:10:12;;;;;;;118.70;32.10;;;;;;;7.39;82.09;100100.17;106444;1260;58983;-78
2022/11/16 09:12:41;;;;;;;171.20;35.20;;;;;;;7.27;83.61;100107.95;106228;1260;65332;-78
2022/11/16 09:15:10;;;;;;;83.00;29.00;;;;;;;7.28;82.82;100109.58;106292;1253;70341;-75
2022/11/16 09:17:39;;;;;;;75.00;28.10;;;;;;;7.21;83.14;100106.10;106069;1260;59987;-76
2022/11/16 09:20:08;;;;;;;56.90;25.30;;;;;;;7.37;82.53;100097.89;106112;1264;72740;-77
2022/11/16 09:22:37;;;;;;;63.50;25.70;;;;;;;7.32;80.92;100096.02;106124;1260;61934;-75
2022/11/16 09:25:08;;;;;;;63.80;26.50;;;;;;;7.41;81.73;100089.86;105943;1265;60730;-77
2022/11/16 09:27:37;;;;;;;62.60;26.80;;;;;;;7.62;80.67;100075.54;106150;1257;74068;-79
2022/11/16 09:30:08;;;;;;;59.60;26.40;;;;;;;7.67;80.56;100073.42;106208;1260;60617;-77
2022/11/16 09:32:37;;;;;;;55.00;26.50;;;;;;;7.48;80.18;100079.77;106125;1257;70239;-77
2022/11/16 09:35:06;;;;;;;57.20;26.90;;;;;;;7.54;80.15;100079.73;106186;1268;72478;-77
2022/11/16 09:37:34;;;;;;;63.90;27.30;;;;;;;7.76;79.90;100087.20;106087;1263;59360;-76
2022/11/16 09:40:05;;;;;;;118.10;31.90;;;;;;;7.88;80.03;100086.71;106199;1257;59211;-79
2022/11/16 09:43:05;;;;;;;62.20;24.40;;;;;;;8.03;80.03;100080.77;106059;1268;63807;-79
2022/11/16 09:46:06;;;;;;;54.90;24.80;;;;;;;8.13;77.85;100081.83;106145;1257;71378;-78
2022/11/16 09:48:37;;;;;;;62.10;26.30;;;;;;;7.81;79.72;100082.02;106119;1253;60137;-78
2022/11/16 09:51:12;;;;;;;60.80;27.30;;;;;;;7.84;79.87;100079.02;106024;1262;63677;-78
2022/11/16 09:53:47;;;;;;;99.30;32.60;;;;;;;7.81;79.77;100068.66;106094;1252;61301;-76
2022/11/16 09:56:24;;;;;;;69.50;30.90;;;;;;;7.49;81.02;100059.64;106230;1268;58295;-76
2022/11/16 09:59:04;;;;;;;74.00;30.30;;;;;;;7.23;82.96;100057.77;106156;1268;62497;-77
2022/11/16 10:01:54;;;;;;;67.90;28.90;;;;;;;7.14;83.40;100055.65;106133;1266;61422;-77
2022/11/16 10:04:56;;;;;;;67.90;31.40;;;;;;;7.15;83.51;100048.80;106344;1267;59126;-75
2022/11/16 10:07:41;;;;;;;67.10;29.00;;;;;;;7.15;83.64;100036.90;106188;1250;62374;-75
2022/11/16 10:10:36;;;;;;;70.10;30.70;;;;;;;7.30;83.17;100031.36;106056;1260;62022;-79
2022/11/16 10:13:42;;;;;;;128.90;42.10;;;;;;;7.29;83.82;100030.73;106052;1259;58688;-78
2022/11/16 10:16:57;;;;;;;158.90;42.90;;;;;;;7.36;86.14;100031.30;106080;1254;62934;-78
2022/11/16 10:19:46;;;;;;;405.30;65.10;;;;;;;7.18;84.40;100024.04;106026;1260;70302;-78
2022/11/16 10:22:44;;;;;;;334.30;61.50;;;;;;;7.43;86.57;100022.46;106019;1256;68610;-77
2022/11/16 10:25:34;;;;;;;147.60;38.90;;;;;;;7.86;86.57;100019.74;106090;1260;63176;-78
2022/11/16 10:28:23;;;;;;;292.50;53.70;;;;;;;7.88;83.77;100021.39;106083;1255;59136;-76
2022/11/16 10:31:27;;;;;;;114.70;35.50;;;;;;;7.74;81.26;100016.65;106156;1263;58646;-78
2022/11/16 10:33:57;;;;;;;;;;;;;;;7.66;82.91;100012.34;106037;1268;62186;-77
2022/11/16 10:36:31;;;;;;;228.40;44.70;;;;;;;7.66;86.15;100017.58;106102;1260;60857;-78
2022/11/16 10:39:01;;;;;;;437.40;71.20;;;;;;;7.83;86.21;100015.29;106146;1260;68612;-74
2022/11/16 10:41:47;;;;;;;477.80;72.10;;;;;;;8.06;86.10;100005.27;106278;1259;62947;-76
2022/11/16 10:44:42;;;;;;;296.70;55.10;;;;;;;7.97;82.78;100000.71;106069;1260;57597;-75
2022/11/16 10:47:45;;;;;;;452.20;75.00;;;;;;;8.06;84.73;99994.02;106022;1259;59180;-78
2022/11/16 10:50:36;;;;;;;394.80;64.60;;;;;;;8.10;82.61;99996.69;106139;1268;62294;-76
2022/11/16 10:53:05;;;;;;;120.50;37.60;;;;;;;8.17;85.17;99996.04;106025;1266;61386;-76
2022/11/16 10:55:34;;;;;;;205.50;46.10;;;;;;;8.18;84.19;99994.86;105984;1259;67880;-78
2022/11/16 10:58:05;;;;;;;118.60;38.30;;;;;;;8.19;82.41;99994.97;105911;1260;73675;-76
2022/11/16 11:00:46;;;;;;;154.90;40.00;;;;;;;8.33;82.22;99994.81;105901;1256;59191;-76
2022/11/16 11:07:36;;;;;;;69.60;29.70;;;;;;;7.92;79.24;99992.46;107124;1251;61967;-80
2022/11/16 11:24:51;;;;;;;63.80;28.00;;;;;;;7.03;82.44;99986.98;106377;1245;57725;-75
2022/11/16 11:27:25;;;;;;;62.40;27.10;;;;;;;6.89;83.30;99985.71;105382;1263;59006;-77
2022/11/16 11:29:57;;;;;;;69.80;30.90;;;;;;;6.87;83.31;99990.69;105380;1267;62999;-75
2022/11/16 11:32:38;;;;;;;65.30;27.00;;;;;;;6.83;84.08;99992.35;105359;1269;70231;-79
2022/11/16 11:35:31;;;;;;;73.40;28.60;;;;;;;6.86;83.53;99992.65;105492;1269;68649;-77
2022/11/16 11:38:03;;;;;;;80.00;33.30;;;;;;;6.77;84.24;99987.73;105388;1274;73042;-77
2022/11/16 11:40:35;;;;;;;75.10;33.20;;;;;;;6.66;86.22;99987.42;105482;1272;62503;-76
2022/11/16 11:43:05;;;;;;;68.70;31.00;;;;;;;6.71;86.35;99983.48;105693;1268;59187;-77
2022/11/16 11:45:46;;;;;;;74.90;32.30;;;;;;;6.82;85.95;99981.31;105443;1265;72666;-79
2022/11/16 11:48:46;;;;;;;72.80;30.20;;;;;;;6.90;85.55;99974.03;105507;1271;61380;-78
2022/11/16 11:51:34;;;;;;;76.20;31.90;;;;;;;7.00;84.78;99971.95;105375;1268;60101;-76
2022/11/16 11:54:06;;;;;;;72.10;31.40;;;;;;;7.06;84.88;99975.55;105303;1266;73852;-78
2022/11/16 11:56:35;;;;;;;69.90;31.20;;;;;;;7.19;84.24;99976.16;105366;1267;59594;-76
2022/11/16 11:59:04;;;;;;;64.80;29.50;;;;;;;7.27;83.45;99972.13;105470;1266;60459;-75
2022/11/16 12:02:25;;;;;;;68.50;32.10;;;;;;;7.37;83.21;99966.77;105497;1268;75019;-78
2022/11/16 12:05:09;;;;;;;69.70;30.20;;;;;;;7.52;82.47;99955.31;105434;1274;72428;-75
2022/11/16 12:08:02;;;;;;;68.30;30.80;;;;;;;7.57;82.31;99956.98;105521;1267;71326;-78
2022/11/16 12:10:40;;;;;;;;;;;;;;;7.61;81.92;99950.98;105743;1274;63787;-76
2022/11/16 12:13:38;;;;;;;68.00;30.30;;;;;;;7.66;82.31;99944.06;105478;1262;62225;-76
2022/11/16 12:16:40;;;;;;;75.50;33.10;;;;;;;7.70;81.46;99943.58;105483;1274;61590;-77
2022/11/16 12:19:21;;;;;;;69.00;28.70;;;;;;;7.63;82.01;99949.29;105695;1266;61996;-77
2022/11/16 12:22:14;;;;;;;67.00;30.60;;;;;;;7.56;81.89;99952.77;105614;1273;71320;-77
2022/11/16 12:25:01;;;;;;;71.30;29.40;;;;;;;7.66;82.12;99954.65;105769;1270;70789;-78
2022/11/16 12:32:49;;;;;;;75.60;32.60;;;;;;;7.64;81.58;99938.67;106323;1251;57429;-73
2022/11/16 12:35:40;;;;;;;66.00;29.20;;;;;;;7.62;81.67;99933.29;105534;1265;61246;-76
2022/11/16 12:38:50;;;;;;;71.90;30.80;;;;;;;7.48;82.59;99928.06;105538;1265;72793;-75
2022/11/16 12:41:49;;;;;;;70.50;30.90;;;;;;;7.61;81.75;99929.69;105773;1272;74105;-75
2022/11/16 12:44:56;;;;;;;66.00;29.50;;;;;;;7.65;81.68;99934.07;105654;1260;68622;-75
2022/11/16 12:48:01;;;;;;;87.50;38.90;;;;;;;7.81;81.33;99938.33;105603;1266;72817;-73
2022/11/16 12:51:08;;;;;;;73.60;31.60;;;;;;;7.85;81.07;99945.13;105704;1266;62931;-77
2022/11/16 12:54:06;;;;;;;68.50;30.40;;;;;;;7.94;80.90;99945.85;105876;1266;60516;-74
2022/11/16 12:57:06;;;;;;;76.50;31.20;;;;;;;7.96;80.11;99938.08;105577;1268;73519;-72
2022/11/16 12:59:49;;;;;;;67.70;31.00;;;;;;;8.09;79.99;99932.42;105772;1274;71059;-74
2022/11/16 13:03:01;;;;;;;68.40;31.30;;;;;;;8.05;79.64;99934.41;105733;1272;59790;-73
2022/11/16 13:06:05;;;;;;;71.70;32.70;;;;;;;8.03;79.79;99930.58;105896;1271;74204;-76